sensor_id;sensor_type;location;lat;lon;timestamp;pressure;altitude;pressure_sealevel;temperature;humidity
28606;BME280;46498;49.968;7.754;2023-01-29T00:03:14;98217.00;;;-1.72;90.50
28606;BME280;46498;49.968;7.754;2023-01-29T00:08:15;98217.00;;;-1.76;89.67
28606;BME280;46498;49.968;7.754;2023-01-29T00:13:16;98226.00;;;-1.96;89.92
28606;BME280;46498;49.968;7.754;2023-01-29T00:18:17;98224.00;;;-2.09;91.61
28606;BME280;46498;49.968;7.754;2023-01-29T00:23:18;98235.00;;;-1.82;90.70
28606;BME280;46498;49.968;7.754;2023-01-29T00:28:19;98243.00;;;-1.82;91.50
28606;BME280;46498;49.968;7.754;2023-01-29T00:33:20;98248.00;;;-1.66;90.96
28606;BME280;46498;49.968;7.754;2023-01-29T00:38:21;98255.00;;;-1.76;90.69
28606;BME280;46498;49.968;7.754;2023-01-29T00:43:22;98245.00;;;-1.79;91.19
28606;BME280;46498;49.968;7.754;2023-01-29T00:48:41;98246.00;;;-1.78;92.25
28606;BME280;46498;49.968;7.754;2023-01-29T00:53:44;98249.00;;;-1.70;93.12
28606;BME280;46498;49.968;7.754;2023-01-29T00:58:45;98248.00;;;-1.72;92.62
28606;BME280;46498;49.968;7.754;2023-01-29T01:03:45;98233.00;;;-1.77;92.80
28606;BME280;46498;49.968;7.754;2023-01-29T01:08:46;98239.00;;;-1.93;93.13
28606;BME280;46498;49.968;7.754;2023-01-29T01:14:06;98241.00;;;-1.99;93.93
28606;BME280;46498;49.968;7.754;2023-01-29T01:19:06;98226.00;;;-2.25;93.80
28606;BME280;46498;49.968;7.754;2023-01-29T01:24:07;98227.00;;;-2.19;93.07
28606;BME280;46498;49.968;7.754;2023-01-29T01:29:08;98217.00;;;-2.13;93.89
28606;BME280;46498;49.968;7.754;2023-01-29T01:34:09;98204.00;;;-1.95;91.11
28606;BME280;46498;49.968;7.754;2023-01-29T01:39:10;98192.00;;;-2.01;90.50
28606;BME280;46498;49.968;7.754;2023-01-29T01:49:51;98170.00;;;-2.27;92.47
28606;BME280;46498;49.968;7.754;2023-01-29T01:54:52;98175.00;;;-2.20;92.83
28606;BME280;46498;49.968;7.754;2023-01-29T01:59:59;98172.00;;;-2.10;92.91
28606;BME280;46498;49.968;7.754;2023-01-29T02:05:13;98165.00;;;-2.14;93.54
28606;BME280;46498;49.968;7.754;2023-01-29T02:10:41;98169.00;;;-2.44;89.63
28606;BME280;46498;49.968;7.754;2023-01-29T02:15:46;98156.00;;;-2.59;90.40
28606;BME280;46498;49.968;7.754;2023-01-29T02:21:45;98157.00;;;-2.78;91.08
28606;BME280;46498;49.968;7.754;2023-01-29T02:27:26;98161.00;;;-2.71;92.12
28606;BME280;46498;49.968;7.754;2023-01-29T02:32:40;98169.00;;;-2.46;92.40
28606;BME280;46498;49.968;7.754;2023-01-29T02:38:04;98172.00;;;-2.32;93.34
28606;BME280;46498;49.968;7.754;2023-01-29T02:43:26;98176.00;;;-2.26;93.04
28606;BME280;46498;49.968;7.754;2023-01-29T02:48:39;98196.00;;;-2.24;93.22
28606;BME280;46498;49.968;7.754;2023-01-29T02:54:06;98204.00;;;-2.20;93.04
28606;BME280;46498;49.968;7.754;2023-01-29T02:59:16;98206.00;;;-2.12;90.32
28606;BME280;46498;49.968;7.754;2023-01-29T03:04:24;98199.00;;;-2.18;90.56
28606;BME280;46498;49.968;7.754;2023-01-29T03:09:33;98199.00;;;-2.37;92.75
28606;BME280;46498;49.968;7.754;2023-01-29T03:14:36;98180.00;;;-2.40;93.27
28606;BME280;46498;49.968;7.754;2023-01-29T03:19:58;98182.00;;;-2.41;91.77
28606;BME280;46498;49.968;7.754;2023-01-29T03:25:01;98181.00;;;-2.68;93.01
28606;BME280;46498;49.968;7.754;2023-01-29T03:30:24;98177.00;;;-3.08;95.46
28606;BME280;46498;49.968;7.754;2023-01-29T03:36:13;98172.00;;;-3.05;95.22
28606;BME280;46498;49.968;7.754;2023-01-29T03:41:32;98190.00;;;-3.04;96.41
28606;BME280;46498;49.968;7.754;2023-01-29T03:46:38;98180.00;;;-3.04;97.48
28606;BME280;46498;49.968;7.754;2023-01-29T03:52:12;98178.00;;;-3.22;97.61
28606;BME280;46498;49.968;7.754;2023-01-29T03:57:38;98181.00;;;-3.17;96.15
28606;BME280;46498;49.968;7.754;2023-01-29T04:04:31;98200.00;;;-3.26;97.78
28606;BME280;46498;49.968;7.754;2023-01-29T04:09:39;98181.00;;;-3.23;97.79
28606;BME280;46498;49.968;7.754;2023-01-29T04:14:44;98171.00;;;-3.28;98.33
28606;BME280;46498;49.968;7.754;2023-01-29T04:19:47;98182.00;;;-3.40;99.22
28606;BME280;46498;49.968;7.754;2023-01-29T04:24:49;98169.00;;;-3.31;98.55
28606;BME280;46498;49.968;7.754;2023-01-29T04:30:32;98180.00;;;-3.27;98.71
28606;BME280;46498;49.968;7.754;2023-01-29T04:35:47;98195.00;;;-3.36;98.69
28606;BME280;46498;49.968;7.754;2023-01-29T04:41:20;98179.00;;;-3.34;98.18
28606;BME280;46498;49.968;7.754;2023-01-29T04:47:13;98190.00;;;-3.33;99.28
28606;BME280;46498;49.968;7.754;2023-01-29T04:52:26;98186.00;;;-3.29;99.97
28606;BME280;46498;49.968;7.754;2023-01-29T05:01:00;98176.00;;;-3.10;98.42
28606;BME280;46498;49.968;7.754;2023-01-29T05:06:05;98171.00;;;-2.99;96.85
28606;BME280;46498;49.968;7.754;2023-01-29T05:11:07;98185.00;;;-3.01;96.16
28606;BME280;46498;49.968;7.754;2023-01-29T05:16:14;98179.00;;;-3.11;94.74
28606;BME280;46498;49.968;7.754;2023-01-29T05:21:17;98168.00;;;-3.23;95.11
28606;BME280;46498;49.968;7.754;2023-01-29T05:26:20;98151.00;;;-3.26;95.66
28606;BME280;46498;49.968;7.754;2023-01-29T05:31:42;98138.00;;;-3.27;96.31
28606;BME280;46498;49.968;7.754;2023-01-29T05:36:44;98131.00;;;-3.40;97.12
28606;BME280;46498;49.968;7.754;2023-01-29T05:41:45;98146.00;;;-3.29;96.50
28606;BME280;46498;49.968;7.754;2023-01-29T05:46:46;98158.00;;;-3.34;97.23
28606;BME280;46498;49.968;7.754;2023-01-29T05:51:46;98155.00;;;-3.33;97.89
28606;BME280;46498;49.968;7.754;2023-01-29T05:56:47;98155.00;;;-3.28;95.97
28606;BME280;46498;49.968;7.754;2023-01-29T06:01:48;98174.00;;;-3.34;95.75
28606;BME280;46498;49.968;7.754;2023-01-29T06:06:49;98191.00;;;-3.37;96.71
28606;BME280;46498;49.968;7.754;2023-01-29T06:11:50;98181.00;;;-3.37;97.14
28606;BME280;46498;49.968;7.754;2023-01-29T06:16:51;98173.00;;;-3.42;98.36
28606;BME280;46498;49.968;7.754;2023-01-29T06:21:51;98159.00;;;-3.56;99.62
28606;BME280;46498;49.968;7.754;2023-01-29T06:26:52;98150.00;;;-3.59;100.00
28606;BME280;46498;49.968;7.754;2023-01-29T06:31:53;98142.00;;;-3.64;100.00
28606;BME280;46498;49.968;7.754;2023-01-29T06:36:54;98146.00;;;-3.49;100.00
28606;BME280;46498;49.968;7.754;2023-01-29T06:41:55;98147.00;;;-3.45;99.72
28606;BME280;46498;49.968;7.754;2023-01-29T06:46:56;98140.00;;;-3.56;100.00
28606;BME280;46498;49.968;7.754;2023-01-29T06:51:57;98144.00;;;-3.62;100.00
28606;BME280;46498;49.968;7.754;2023-01-29T06:56:57;98139.00;;;-3.77;100.00
28606;BME280;46498;49.968;7.754;2023-01-29T07:01:58;98145.00;;;-3.86;100.00
28606;BME280;46498;49.968;7.754;2023-01-29T07:06:59;98131.00;;;-3.91;100.00
28606;BME280;46498;49.968;7.754;2023-01-29T07:12:00;98138.00;;;-3.91;100.00
28606;BME280;46498;49.968;7.754;2023-01-29T07:17:01;98148.00;;;-3.97;100.00
28606;BME280;46498;49.968;7.754;2023-01-29T07:22:02;98155.00;;;-3.92;100.00
28606;BME280;46498;49.968;7.754;2023-01-29T07:27:04;98174.00;;;-3.88;100.00
28606;BME280;46498;49.968;7.754;2023-01-29T07:32:05;98189.00;;;-3.72;100.00
28606;BME280;46498;49.968;7.754;2023-01-29T07:37:07;98203.00;;;-3.60;100.00
28606;BME280;46498;49.968;7.754;2023-01-29T07:42:08;98182.00;;;-3.56;100.00
28606;BME280;46498;49.968;7.754;2023-01-29T07:47:09;98177.00;;;-3.63;100.00
28606;BME280;46498;49.968;7.754;2023-01-29T07:52:09;98170.00;;;-3.60;100.00
28606;BME280;46498;49.968;7.754;2023-01-29T07:57:11;98175.00;;;-3.47;100.00
28606;BME280;46498;49.968;7.754;2023-01-29T08:02:12;98165.00;;;-3.54;100.00
28606;BME280;46498;49.968;7.754;2023-01-29T08:07:13;98164.00;;;-3.91;100.00
28606;BME280;46498;49.968;7.754;2023-01-29T08:12:14;98161.00;;;-3.91;100.00
28606;BME280;46498;49.968;7.754;2023-01-29T08:17:15;98158.00;;;-3.55;100.00
28606;BME280;46498;49.968;7.754;2023-01-29T08:22:16;98163.00;;;-3.72;100.00
28606;BME280;46498;49.968;7.754;2023-01-29T08:27:17;98160.00;;;-3.80;100.00
28606;BME280;46498;49.968;7.754;2023-01-29T08:32:18;98179.00;;;-3.75;100.00
28606;BME280;46498;49.968;7.754;2023-01-29T08:37:19;98189.00;;;-3.58;100.00
28606;BME280;46498;49.968;7.754;2023-01-29T08:42:20;98185.00;;;-3.16;100.00
28606;BME280;46498;49.968;7.754;2023-01-29T08:47:20;98200.00;;;-2.91;100.00
28606;BME280;46498;49.968;7.754;2023-01-29T08:52:21;98177.00;;;-2.75;100.00
28606;BME280;46498;49.968;7.754;2023-01-29T08:57:22;98176.00;;;-2.63;97.53
28606;BME280;46498;49.968;7.754;2023-01-29T09:02:23;98185.00;;;-2.86;96.99
28606;BME280;46498;49.968;7.754;2023-01-29T09:07:24;98194.00;;;-2.94;98.15
28606;BME280;46498;49.968;7.754;2023-01-29T09:12:25;98196.00;;;-2.96;98.75
28606;BME280;46498;49.968;7.754;2023-01-29T09:17:25;98200.00;;;-2.82;98.24
28606;BME280;46498;49.968;7.754;2023-01-29T09:22:27;98206.00;;;-2.74;98.50
28606;BME280;46498;49.968;7.754;2023-01-29T09:27:28;98192.00;;;-2.80;96.95
28606;BME280;46498;49.968;7.754;2023-01-29T09:32:28;98190.00;;;-2.71;97.88
28606;BME280;46498;49.968;7.754;2023-01-29T09:38:02;98208.00;;;-2.69;96.97
28606;BME280;46498;49.968;7.754;2023-01-29T09:43:09;98212.00;;;-3.02;97.19
28606;BME280;46498;49.968;7.754;2023-01-29T09:48:13;98220.00;;;-3.07;98.74
28606;BME280;46498;49.968;7.754;2023-01-29T09:58:49;98217.00;;;-3.34;99.92
28606;BME280;46498;49.968;7.754;2023-01-29T10:04:07;98215.00;;;-3.44;100.00
28606;BME280;46498;49.968;7.754;2023-01-29T10:10:08;98223.00;;;-3.27;100.00
28606;BME280;46498;49.968;7.754;2023-01-29T10:16:07;98222.00;;;-3.31;100.00
28606;BME280;46498;49.968;7.754;2023-01-29T10:21:27;98217.00;;;-3.09;100.00
28606;BME280;46498;49.968;7.754;2023-01-29T10:26:32;98220.00;;;-2.57;100.00
28606;BME280;46498;49.968;7.754;2023-01-29T10:31:39;98213.00;;;-2.48;98.80
28606;BME280;46498;49.968;7.754;2023-01-29T10:36:45;98187.00;;;-2.56;95.54
28606;BME280;46498;49.968;7.754;2023-01-29T10:42:40;98173.00;;;-2.23;93.66
28606;BME280;46498;49.968;7.754;2023-01-29T10:48:00;98161.00;;;-2.13;94.29
28606;BME280;46498;49.968;7.754;2023-01-29T11:08:17;98111.00;;;-2.03;88.60
28606;BME280;46498;49.968;7.754;2023-01-29T11:13:20;98105.00;;;-0.96;84.75
28606;BME280;46498;49.968;7.754;2023-01-29T11:18:23;98104.00;;;-0.19;81.83
28606;BME280;46498;49.968;7.754;2023-01-29T11:23:30;98101.00;;;0.28;76.55
28606;BME280;46498;49.968;7.754;2023-01-29T11:28:46;98092.00;;;0.94;74.96
28606;BME280;46498;49.968;7.754;2023-01-29T11:33:49;98081.00;;;0.75;70.39
28606;BME280;46498;49.968;7.754;2023-01-29T11:39:12;98085.00;;;1.56;73.66
28606;BME280;46498;49.968;7.754;2023-01-29T11:44:29;98092.00;;;1.39;65.74
28606;BME280;46498;49.968;7.754;2023-01-29T11:49:32;98095.00;;;1.26;70.16
28606;BME280;46498;49.968;7.754;2023-01-29T11:54:43;98087.00;;;1.48;64.93
28606;BME280;46498;49.968;7.754;2023-01-29T11:59:49;98074.00;;;0.98;67.93
28606;BME280;46498;49.968;7.754;2023-01-29T12:04:53;98068.00;;;0.74;69.25
28606;BME280;46498;49.968;7.754;2023-01-29T12:09:56;98048.00;;;0.89;69.56
28606;BME280;46498;49.968;7.754;2023-01-29T12:15:02;98034.00;;;0.68;70.58
28606;BME280;46498;49.968;7.754;2023-01-29T12:20:11;98016.00;;;0.68;74.81
28606;BME280;46498;49.968;7.754;2023-01-29T12:26:42;98009.00;;;1.77;73.04
28606;BME280;46498;49.968;7.754;2023-01-29T12:31:54;97998.00;;;1.01;68.56
28606;BME280;46498;49.968;7.754;2023-01-29T12:37:10;97996.00;;;1.38;69.95
28606;BME280;46498;49.968;7.754;2023-01-29T12:42:19;97983.00;;;1.54;67.19
28606;BME280;46498;49.968;7.754;2023-01-29T12:47:29;97987.00;;;1.34;67.68
28606;BME280;46498;49.968;7.754;2023-01-29T12:52:44;97971.00;;;1.04;67.55
28606;BME280;46498;49.968;7.754;2023-01-29T12:57:56;97975.00;;;0.79;69.18
28606;BME280;46498;49.968;7.754;2023-01-29T13:03:07;97970.00;;;0.49;74.25
28606;BME280;46498;49.968;7.754;2023-01-29T13:09:35;97967.00;;;0.69;73.65
28606;BME280;46498;49.968;7.754;2023-01-29T13:14:44;97954.00;;;1.69;72.10
28606;BME280;46498;49.968;7.754;2023-01-29T13:19:53;97945.00;;;2.04;67.48
28606;BME280;46498;49.968;7.754;2023-01-29T13:24:55;97948.00;;;2.35;66.63
28606;BME280;46498;49.968;7.754;2023-01-29T13:30:06;97952.00;;;2.40;63.71
28606;BME280;46498;49.968;7.754;2023-01-29T13:35:14;97928.00;;;2.14;65.24
28606;BME280;46498;49.968;7.754;2023-01-29T13:40:23;97924.00;;;2.17;65.92
28606;BME280;46498;49.968;7.754;2023-01-29T13:45:41;97921.00;;;2.05;67.76
28606;BME280;46498;49.968;7.754;2023-01-29T13:50:44;97907.00;;;2.06;68.03
28606;BME280;46498;49.968;7.754;2023-01-29T13:55:46;97913.00;;;2.11;64.51
28606;BME280;46498;49.968;7.754;2023-01-29T14:00:47;97902.00;;;2.90;63.54
28606;BME280;46498;49.968;7.754;2023-01-29T14:05:59;97893.00;;;2.79;64.58
28606;BME280;46498;49.968;7.754;2023-01-29T14:12:53;97899.00;;;3.46;60.83
28606;BME280;46498;49.968;7.754;2023-01-29T14:18:18;97894.00;;;3.44;58.18
28606;BME280;46498;49.968;7.754;2023-01-29T14:24:54;97904.00;;;3.53;58.07
28606;BME280;46498;49.968;7.754;2023-01-29T14:30:00;97897.00;;;3.32;60.40
28606;BME280;46498;49.968;7.754;2023-01-29T14:35:09;97898.00;;;3.52;58.98
28606;BME280;46498;49.968;7.754;2023-01-29T14:40:22;97893.00;;;3.11;60.01
28606;BME280;46498;49.968;7.754;2023-01-29T14:45:39;97880.00;;;3.17;60.37
28606;BME280;46498;49.968;7.754;2023-01-29T14:50:51;97878.00;;;3.51;59.01
28606;BME280;46498;49.968;7.754;2023-01-29T14:56:13;97876.00;;;3.60;58.20
28606;BME280;46498;49.968;7.754;2023-01-29T15:01:37;97867.00;;;3.22;59.65
28606;BME280;46498;49.968;7.754;2023-01-29T15:06:45;97864.00;;;2.69;63.40
28606;BME280;46498;49.968;7.754;2023-01-29T15:19:47;97862.00;;;2.76;64.45
28606;BME280;46498;49.968;7.754;2023-01-29T15:25:05;97858.00;;;2.67;65.95
28606;BME280;46498;49.968;7.754;2023-01-29T15:30:15;97844.00;;;2.00;67.62
28606;BME280;46498;49.968;7.754;2023-01-29T15:35:28;97826.00;;;2.04;69.50
28606;BME280;46498;49.968;7.754;2023-01-29T15:40:30;97830.00;;;1.57;71.02
28606;BME280;46498;49.968;7.754;2023-01-29T15:45:32;97826.00;;;1.51;72.31
28606;BME280;46498;49.968;7.754;2023-01-29T15:50:38;97820.00;;;1.44;74.05
28606;BME280;46498;49.968;7.754;2023-01-29T15:55:40;97811.00;;;1.05;76.45
28606;BME280;46498;49.968;7.754;2023-01-29T16:00:51;97811.00;;;0.79;76.63
28606;BME280;46498;49.968;7.754;2023-01-29T16:05:53;97797.00;;;0.92;75.96
28606;BME280;46498;49.968;7.754;2023-01-29T16:10:57;97792.00;;;0.72;76.16
28606;BME280;46498;49.968;7.754;2023-01-29T16:16:01;97807.00;;;0.36;78.71
28606;BME280;46498;49.968;7.754;2023-01-29T16:21:08;97811.00;;;-0.16;82.12
28606;BME280;46498;49.968;7.754;2023-01-29T16:26:23;97810.00;;;-0.20;85.27
28606;BME280;46498;49.968;7.754;2023-01-29T16:31:26;97824.00;;;-0.30;84.37
28606;BME280;46498;49.968;7.754;2023-01-29T16:36:28;97831.00;;;-0.49;86.94
28606;BME280;46498;49.968;7.754;2023-01-29T16:41:34;97830.00;;;-0.77;88.67
28606;BME280;46498;49.968;7.754;2023-01-29T16:46:44;97834.00;;;-0.88;90.22
28606;BME280;46498;49.968;7.754;2023-01-29T16:51:45;97841.00;;;-0.77;89.36
28606;BME280;46498;49.968;7.754;2023-01-29T16:56:47;97846.00;;;-0.68;90.04
28606;BME280;46498;49.968;7.754;2023-01-29T17:01:49;97855.00;;;-0.63;90.83
28606;BME280;46498;49.968;7.754;2023-01-29T17:06:55;97854.00;;;-0.73;92.02
28606;BME280;46498;49.968;7.754;2023-01-29T17:11:59;97848.00;;;-0.82;92.61
28606;BME280;46498;49.968;7.754;2023-01-29T17:17:14;97850.00;;;-1.05;94.03
28606;BME280;46498;49.968;7.754;2023-01-29T17:22:15;97857.00;;;-1.17;94.29
28606;BME280;46498;49.968;7.754;2023-01-29T17:27:21;97870.00;;;-1.21;94.71
28606;BME280;46498;49.968;7.754;2023-01-29T17:32:23;97864.00;;;-1.06;92.74
28606;BME280;46498;49.968;7.754;2023-01-29T17:37:24;97879.00;;;-1.03;91.67
28606;BME280;46498;49.968;7.754;2023-01-29T17:42:25;97877.00;;;-1.01;88.73
28606;BME280;46498;49.968;7.754;2023-01-29T17:47:28;97873.00;;;-1.14;90.01
28606;BME280;46498;49.968;7.754;2023-01-29T17:52:29;97871.00;;;-1.29;89.97
28606;BME280;46498;49.968;7.754;2023-01-29T17:57:32;97871.00;;;-1.50;90.67
28606;BME280;46498;49.968;7.754;2023-01-29T18:02:33;97866.00;;;-1.54;91.13
28606;BME280;46498;49.968;7.754;2023-01-29T18:07:35;97856.00;;;-1.75;91.75
28606;BME280;46498;49.968;7.754;2023-01-29T18:12:36;97838.00;;;-1.87;93.52
28606;BME280;46498;49.968;7.754;2023-01-29T18:17:38;97839.00;;;-1.93;94.47
28606;BME280;46498;49.968;7.754;2023-01-29T18:22:39;97833.00;;;-2.25;97.21
28606;BME280;46498;49.968;7.754;2023-01-29T18:27:40;97829.00;;;-2.10;96.81
28606;BME280;46498;49.968;7.754;2023-01-29T18:32:41;97828.00;;;-2.09;97.20
28606;BME280;46498;49.968;7.754;2023-01-29T18:37:42;97827.00;;;-2.17;97.61
28606;BME280;46498;49.968;7.754;2023-01-29T18:42:43;97807.00;;;-2.11;96.50
28606;BME280;46498;49.968;7.754;2023-01-29T18:47:44;97809.00;;;-2.20;97.60
28606;BME280;46498;49.968;7.754;2023-01-29T18:52:45;97814.00;;;-2.13;97.44
28606;BME280;46498;49.968;7.754;2023-01-29T18:57:46;97818.00;;;-2.12;97.32
28606;BME280;46498;49.968;7.754;2023-01-29T19:03:35;97815.00;;;-2.23;98.05
28606;BME280;46498;49.968;7.754;2023-01-29T19:08:38;97822.00;;;-2.13;97.93
28606;BME280;46498;49.968;7.754;2023-01-29T19:13:38;97811.00;;;-2.17;99.18
28606;BME280;46498;49.968;7.754;2023-01-29T19:18:40;97810.00;;;-2.25;99.79
28606;BME280;46498;49.968;7.754;2023-01-29T19:23:42;97806.00;;;-2.17;99.88
28606;BME280;46498;49.968;7.754;2023-01-29T19:28:43;97796.00;;;-2.21;100.00
28606;BME280;46498;49.968;7.754;2023-01-29T19:33:44;97785.00;;;-2.46;100.00
28606;BME280;46498;49.968;7.754;2023-01-29T19:38:45;97785.00;;;-2.46;100.00
28606;BME280;46498;49.968;7.754;2023-01-29T19:43:46;97783.00;;;-2.48;100.00
28606;BME280;46498;49.968;7.754;2023-01-29T19:48:47;97778.00;;;-2.52;100.00
28606;BME280;46498;49.968;7.754;2023-01-29T19:53:48;97778.00;;;-2.47;100.00
28606;BME280;46498;49.968;7.754;2023-01-29T19:58:49;97772.00;;;-2.47;100.00
28606;BME280;46498;49.968;7.754;2023-01-29T20:03:57;97759.00;;;-2.33;100.00
28606;BME280;46498;49.968;7.754;2023-01-29T20:08:58;97757.00;;;-2.24;100.00
28606;BME280;46498;49.968;7.754;2023-01-29T20:14:01;97749.00;;;-2.22;100.00
28606;BME280;46498;49.968;7.754;2023-01-29T20:19:02;97738.00;;;-2.11;100.00
28606;BME280;46498;49.968;7.754;2023-01-29T20:24:14;97740.00;;;-2.06;100.00
28606;BME280;46498;49.968;7.754;2023-01-29T20:29:15;97744.00;;;-1.99;100.00
28606;BME280;46498;49.968;7.754;2023-01-29T20:34:16;97737.00;;;-1.82;100.00
28606;BME280;46498;49.968;7.754;2023-01-29T20:39:17;97729.00;;;-1.71;100.00
28606;BME280;46498;49.968;7.754;2023-01-29T20:44:18;97721.00;;;-1.68;100.00
28606;BME280;46498;49.968;7.754;2023-01-29T20:49:19;97723.00;;;-1.61;100.00
28606;BME280;46498;49.968;7.754;2023-01-29T20:54:21;97719.00;;;-1.57;100.00
28606;BME280;46498;49.968;7.754;2023-01-29T20:59:22;97733.00;;;-1.48;100.00
28606;BME280;46498;49.968;7.754;2023-01-29T21:04:23;97710.00;;;-1.32;100.00
28606;BME280;46498;49.968;7.754;2023-01-29T21:09:24;97701.00;;;-1.33;100.00
28606;BME280;46498;49.968;7.754;2023-01-29T21:14:25;97712.00;;;-1.11;100.00
28606;BME280;46498;49.968;7.754;2023-01-29T21:19:26;97703.00;;;-1.25;100.00
28606;BME280;46498;49.968;7.754;2023-01-29T21:24:27;97708.00;;;-1.35;100.00
28606;BME280;46498;49.968;7.754;2023-01-29T21:29:28;97701.00;;;-1.26;100.00
28606;BME280;46498;49.968;7.754;2023-01-29T21:34:29;97703.00;;;-0.95;100.00
28606;BME280;46498;49.968;7.754;2023-01-29T21:39:29;97690.00;;;-1.26;100.00
28606;BME280;46498;49.968;7.754;2023-01-29T21:44:31;97672.00;;;-1.33;100.00
28606;BME280;46498;49.968;7.754;2023-01-29T21:49:33;97676.00;;;-1.33;100.00
28606;BME280;46498;49.968;7.754;2023-01-29T21:54:34;97665.00;;;-1.27;100.00
28606;BME280;46498;49.968;7.754;2023-01-29T21:59:35;97652.00;;;-1.24;100.00
28606;BME280;46498;49.968;7.754;2023-01-29T22:04:36;97642.00;;;-1.23;100.00
28606;BME280;46498;49.968;7.754;2023-01-29T22:09:37;97637.00;;;-1.24;100.00
28606;BME280;46498;49.968;7.754;2023-01-29T22:14:38;97630.00;;;-1.25;100.00
28606;BME280;46498;49.968;7.754;2023-01-29T22:19:42;97638.00;;;-1.27;100.00
28606;BME280;46498;49.968;7.754;2023-01-29T22:24:43;97647.00;;;-1.28;100.00
28606;BME280;46498;49.968;7.754;2023-01-29T22:29:46;97658.00;;;-1.28;100.00
28606;BME280;46498;49.968;7.754;2023-01-29T22:34:46;97652.00;;;-1.23;100.00
28606;BME280;46498;49.968;7.754;2023-01-29T22:39:47;97636.00;;;-1.29;100.00
28606;BME280;46498;49.968;7.754;2023-01-29T22:44:48;97623.00;;;-1.26;100.00
28606;BME280;46498;49.968;7.754;2023-01-29T22:49:49;97601.00;;;-1.20;100.00
28606;BME280;46498;49.968;7.754;2023-01-29T22:54:52;97604.00;;;-1.25;100.00
28606;BME280;46498;49.968;7.754;2023-01-29T22:59:53;97613.00;;;-1.19;100.00
28606;BME280;46498;49.968;7.754;2023-01-29T23:04:54;97586.00;;;-1.21;100.00
28606;BME280;46498;49.968;7.754;2023-01-29T23:09:54;97568.00;;;-1.15;100.00
28606;BME280;46498;49.968;7.754;2023-01-29T23:14:55;97564.00;;;-1.11;100.00
28606;BME280;46498;49.968;7.754;2023-01-29T23:19:56;97579.00;;;-0.99;100.00
28606;BME280;46498;49.968;7.754;2023-01-29T23:24:57;97581.00;;;-1.12;100.00
28606;BME280;46498;49.968;7.754;2023-01-29T23:29:58;97585.00;;;-1.13;100.00
28606;BME280;46498;49.968;7.754;2023-01-29T23:34:58;97594.00;;;-1.13;100.00
28606;BME280;46498;49.968;7.754;2023-01-29T23:39:59;97606.00;;;-1.17;100.00
28606;BME280;46498;49.968;7.754;2023-01-29T23:45:00;97601.00;;;-1.06;100.00
28606;BME280;46498;49.968;7.754;2023-01-29T23:50:01;97586.00;;;-0.97;100.00
28606;BME280;46498;49.968;7.754;2023-01-29T23:55:02;97581.00;;;-0.90;100.00
